createdAt,value
2023-04-20T00:00:44.157Z,3.20
2023-04-20T00:03:29.493Z,3.80
2023-04-20T00:06:15.482Z,3.63
2023-04-20T00:09:01.806Z,3.67
2023-04-20T00:11:46.831Z,3.55
2023-04-20T00:14:32.021Z,3.13
2023-04-20T00:17:17.820Z,3.75
2023-04-20T00:20:03.743Z,3.90
2023-04-20T00:22:48.778Z,3.95
2023-04-20T00:25:37.112Z,3.53
2023-04-20T00:28:22.282Z,4.35
2023-04-20T00:31:07.358Z,3.65
2023-04-20T00:33:52.386Z,3.65
2023-04-20T00:36:37.302Z,3.78
2023-04-20T00:39:22.683Z,3.55
2023-04-20T00:42:08.998Z,4.13
2023-04-20T00:44:54.535Z,3.90
2023-04-20T00:47:39.881Z,4.10
2023-04-20T00:50:24.936Z,3.58
2023-04-20T00:53:11.301Z,4.03
2023-04-20T00:55:56.668Z,3.67
2023-04-20T00:58:43.664Z,3.53
2023-04-20T01:01:29.110Z,3.30
2023-04-20T01:04:14.437Z,3.95
2023-04-20T01:06:59.691Z,3.20
2023-04-20T01:09:44.650Z,3.38
2023-04-20T01:12:29.822Z,4.03
2023-04-20T01:15:14.853Z,3.60
2023-04-20T01:18:00.202Z,3.55
2023-04-20T01:20:47.133Z,5.07
2023-04-20T01:23:35.033Z,3.85
2023-04-20T01:26:20.934Z,4.05
2023-04-20T01:29:06.014Z,4.15
2023-04-20T01:31:51.614Z,4.20
2023-04-20T01:34:37.492Z,4.53
2023-04-20T01:37:22.491Z,4.25
2023-04-20T01:40:12.884Z,3.70
2023-04-20T01:42:57.969Z,3.90
2023-04-20T01:45:43.317Z,4.00
2023-04-20T01:48:28.662Z,3.65
2023-04-20T01:51:13.957Z,4.25
2023-04-20T01:53:59.824Z,4.70
2023-04-20T01:56:45.122Z,4.35
2023-04-20T01:59:30.068Z,3.92
2023-04-20T02:02:15.402Z,4.00
2023-04-20T02:05:01.038Z,4.63
2023-04-20T02:07:46.129Z,4.50
2023-04-20T02:10:31.247Z,5.20
2023-04-20T02:13:16.522Z,4.97
2023-04-20T02:16:01.896Z,4.88
2023-04-20T02:18:47.300Z,5.93
2023-04-20T02:21:32.623Z,5.60
2023-04-20T02:24:17.892Z,6.05
2023-04-20T02:27:03.525Z,6.05
2023-04-20T02:29:49.038Z,6.15
2023-04-20T02:32:35.163Z,5.68
2023-04-20T02:35:20.770Z,6.22
2023-04-20T02:38:06.076Z,6.13
2023-04-20T02:40:51.283Z,6.72
2023-04-20T02:43:36.579Z,6.68
2023-04-20T02:46:21.724Z,6.63
2023-04-20T02:49:07.154Z,6.40
2023-04-20T02:51:52.055Z,6.13
2023-04-20T02:54:36.945Z,5.85
2023-04-20T02:57:22.205Z,7.13
2023-04-20T03:00:08.910Z,6.93
2023-04-20T03:02:54.484Z,6.22
2023-04-20T03:05:40.225Z,7.28
2023-04-20T03:08:25.637Z,6.75
2023-04-20T03:11:10.878Z,6.18
2023-04-20T03:13:55.841Z,6.63
2023-04-20T03:16:41.553Z,6.78
2023-04-20T03:19:26.823Z,7.00
2023-04-20T03:22:12.036Z,7.43
2023-04-20T03:24:57.118Z,7.43
2023-04-20T03:27:42.239Z,6.95
2023-04-20T03:30:27.429Z,7.00
2023-04-20T03:33:12.628Z,7.18
2023-04-20T03:35:57.792Z,7.22
2023-04-20T03:38:43.162Z,7.07
2023-04-20T03:41:28.166Z,7.57
2023-04-20T03:44:14.087Z,7.68
2023-04-20T03:46:59.050Z,7.10
2023-04-20T03:49:44.188Z,9.30
2023-04-20T03:52:29.655Z,8.13
2023-04-20T03:55:14.674Z,7.53
2023-04-20T03:57:59.656Z,8.05
2023-04-20T04:00:44.739Z,8.00
2023-04-20T04:03:30.378Z,8.40
2023-04-20T04:06:15.636Z,7.95
2023-04-20T04:09:01.008Z,8.85
2023-04-20T04:11:46.147Z,8.52
2023-04-20T04:14:32.585Z,7.93
2023-04-20T04:17:18.015Z,8.52
2023-04-20T04:20:03.501Z,8.60
2023-04-20T04:22:48.705Z,9.10
2023-04-20T04:25:33.782Z,8.68
2023-04-20T04:28:19.209Z,8.75
2023-04-20T04:31:06.052Z,8.38
2023-04-20T04:33:51.507Z,8.88
2023-04-20T04:36:36.741Z,8.63
2023-04-20T04:39:21.822Z,8.27
2023-04-20T04:42:06.917Z,7.93
2023-04-20T04:44:53.673Z,8.10
2023-04-20T04:47:41.135Z,8.50
2023-04-20T04:50:26.346Z,7.43
2023-04-20T04:53:11.225Z,8.00
2023-04-20T04:55:56.368Z,7.47
2023-04-20T04:58:41.630Z,6.85
2023-04-20T05:01:26.496Z,8.25
2023-04-20T05:04:11.436Z,7.80
2023-04-20T05:06:56.873Z,7.45
2023-04-20T05:09:41.767Z,7.85
2023-04-20T05:12:26.670Z,8.13
2023-04-20T05:15:12.104Z,7.65
2023-04-20T05:17:57.790Z,7.00
2023-04-20T05:20:43.066Z,7.70
2023-04-20T05:23:28.254Z,7.47
2023-04-20T05:26:16.149Z,7.43
2023-04-20T05:29:01.692Z,7.75
2023-04-20T05:31:46.977Z,6.50
2023-04-20T05:34:32.090Z,7.30
2023-04-20T05:37:17.232Z,7.40
2023-04-20T05:40:02.444Z,7.38
2023-04-20T05:42:47.511Z,7.47
2023-04-20T05:45:34.372Z,7.20
2023-04-20T05:48:19.408Z,7.50
2023-04-20T05:51:04.523Z,7.47
2023-04-20T05:53:49.718Z,7.40
2023-04-20T05:56:34.725Z,7.20
2023-04-20T05:59:20.661Z,7.68
2023-04-20T06:02:06.236Z,7.93
2023-04-20T06:04:51.530Z,6.72
2023-04-20T06:07:37.470Z,7.80
2023-04-20T06:10:22.782Z,8.07
2023-04-20T06:13:07.968Z,6.88
2023-04-20T06:15:54.067Z,5.75
2023-04-20T06:18:39.534Z,5.03
2023-04-20T06:21:25.088Z,4.72
2023-04-20T06:24:09.948Z,4.82
2023-04-20T06:26:54.914Z,4.75
2023-04-20T06:29:40.171Z,5.35
2023-04-20T06:32:25.210Z,4.50
2023-04-20T06:35:10.551Z,4.97
2023-04-20T06:37:57.490Z,5.20
2023-04-20T06:40:42.580Z,5.18
2023-04-20T06:43:27.648Z,4.47
2023-04-20T06:46:12.899Z,4.07
2023-04-20T06:48:59.197Z,4.38
2023-04-20T06:51:44.445Z,3.97
2023-04-20T06:54:29.365Z,4.10
2023-04-20T06:57:14.359Z,3.60
2023-04-20T06:59:59.218Z,3.88
2023-04-20T07:02:45.857Z,3.67
2023-04-20T07:05:31.199Z,3.88
2023-04-20T07:08:17.032Z,3.65
2023-04-20T07:11:02.104Z,2.90
2023-04-20T07:13:46.947Z,3.38
2023-04-20T07:16:32.076Z,3.53
2023-04-20T07:19:17.725Z,3.42
2023-04-20T07:22:03.142Z,3.10
2023-04-20T07:24:48.308Z,3.22
2023-04-20T07:27:38.512Z,2.97
2023-04-20T07:33:09.132Z,3.22
2023-04-20T07:35:54.360Z,3.72
2023-04-20T07:38:39.474Z,3.30
2023-04-20T07:41:24.465Z,3.33
2023-04-20T07:44:09.607Z,3.88
2023-04-20T07:46:55.540Z,3.50
2023-04-20T07:49:41.145Z,3.45
2023-04-20T07:52:26.545Z,3.75
2023-04-20T07:55:12.026Z,3.42
2023-04-20T07:57:57.861Z,3.47
2023-04-20T08:00:42.930Z,3.85
2023-04-20T08:03:28.987Z,3.33
2023-04-20T08:06:14.329Z,3.55
2023-04-20T08:08:59.292Z,3.05
2023-04-20T08:11:46.191Z,2.80
2023-04-20T08:14:31.653Z,3.17
2023-04-20T08:17:16.647Z,2.83
2023-04-20T08:20:02.300Z,3.05
2023-04-20T08:22:47.470Z,2.80
2023-04-20T08:25:32.612Z,3.55
2023-04-20T08:28:32.456Z,2.75
2023-04-20T08:31:18.913Z,3.08
2023-04-20T08:34:04.101Z,3.65
2023-04-20T08:36:49.318Z,2.97
2023-04-20T08:39:34.769Z,3.28
2023-04-20T08:42:20.077Z,2.75
2023-04-20T08:45:05.734Z,2.78
2023-04-20T08:47:51.115Z,2.05
2023-04-20T08:50:37.416Z,2.80
2023-04-20T08:53:22.764Z,2.22
2023-04-20T08:56:08.229Z,2.53
2023-04-20T08:58:53.476Z,2.40
2023-04-20T09:01:39.534Z,2.13
2023-04-20T09:04:29.473Z,2.40
2023-04-20T09:07:21.595Z,3.55
2023-04-20T09:10:07.064Z,2.40
2023-04-20T09:12:53.331Z,2.28
2023-04-20T09:15:38.497Z,2.20
2023-04-20T09:18:24.844Z,2.08
2023-04-20T09:21:10.475Z,2.20
2023-04-20T09:24:03.403Z,1.85
2023-04-20T09:26:48.639Z,2.10
2023-04-20T09:29:33.595Z,2.20
2023-04-20T09:32:26.112Z,2.50
2023-04-20T09:35:11.053Z,2.30
2023-04-20T09:37:56.429Z,2.00
2023-04-20T09:40:41.679Z,1.65
2023-04-20T09:43:28.175Z,1.05
2023-04-20T09:46:13.391Z,1.40
2023-04-20T09:49:03.515Z,1.80
2023-04-20T09:51:49.086Z,1.40
2023-04-20T09:54:36.874Z,1.25
2023-04-20T09:57:22.995Z,1.50
2023-04-20T10:00:12.462Z,1.50
2023-04-20T10:02:58.029Z,1.70
2023-04-20T10:05:43.211Z,1.77
2023-04-20T10:08:28.589Z,1.70
2023-04-20T10:11:48.935Z,1.98
2023-04-20T10:14:37.301Z,2.10
2023-04-20T10:17:30.604Z,1.50
2023-04-20T10:20:28.105Z,2.05
2023-04-20T10:23:18.385Z,1.63
2023-04-20T10:26:03.882Z,2.15
2023-04-20T10:28:49.360Z,1.75
2023-04-20T10:31:42.081Z,1.67
2023-04-20T10:34:35.355Z,1.80
2023-04-20T10:37:20.679Z,1.95
2023-04-20T10:40:08.095Z,1.40
2023-04-20T10:42:53.645Z,1.20
2023-04-20T10:45:40.167Z,1.60
2023-04-20T10:48:25.492Z,1.25
2023-04-20T10:51:10.812Z,1.48
2023-04-20T10:54:07.972Z,1.25
2023-04-20T10:56:54.535Z,1.40
2023-04-20T10:59:41.417Z,1.70
2023-04-20T11:02:28.244Z,1.30
2023-04-20T11:05:14.002Z,1.50
2023-04-20T11:08:01.192Z,1.30
2023-04-20T11:10:46.594Z,0.95
2023-04-20T11:13:32.886Z,1.00
2023-04-20T11:16:19.477Z,1.30
2023-04-20T11:19:05.833Z,1.08
2023-04-20T11:21:51.294Z,1.10
2023-04-20T11:24:37.465Z,1.33
2023-04-20T11:27:22.713Z,0.98
2023-04-20T11:30:09.809Z,1.00
2023-04-20T11:32:55.265Z,1.30
2023-04-20T11:35:42.285Z,1.10
2023-04-20T11:38:32.235Z,1.02
2023-04-20T11:41:17.825Z,1.10
2023-04-20T11:44:02.821Z,0.95
2023-04-20T11:46:53.253Z,1.10
2023-04-20T11:49:38.926Z,1.20
2023-04-20T11:52:24.142Z,1.25
2023-04-20T11:55:09.690Z,0.90
2023-04-20T11:57:54.578Z,0.95
2023-04-20T12:00:39.518Z,0.82
2023-04-20T12:03:24.817Z,1.00
2023-04-20T12:06:10.360Z,0.90
2023-04-20T12:08:56.421Z,1.35
2023-04-20T12:11:41.400Z,1.10
2023-04-20T12:14:27.195Z,1.23
2023-04-20T12:17:12.710Z,1.42
2023-04-20T12:19:58.001Z,1.23
2023-04-20T12:22:43.398Z,1.45
2023-04-20T12:25:28.512Z,1.42
2023-04-20T12:28:14.307Z,1.60
2023-04-20T12:30:59.514Z,1.40
2023-04-20T12:33:44.900Z,1.40
2023-04-20T12:36:30.409Z,1.67
2023-04-20T12:39:16.000Z,1.45
2023-04-20T12:42:02.363Z,1.70
2023-04-20T12:44:47.360Z,1.70
2023-04-20T12:47:32.371Z,1.73
2023-04-20T12:50:17.638Z,1.60
2023-04-20T12:53:02.933Z,1.52
2023-04-20T12:55:49.535Z,1.58
2023-04-20T12:58:38.434Z,1.42
2023-04-20T13:01:23.340Z,1.40
2023-04-20T13:04:09.116Z,1.35
2023-04-20T13:06:54.205Z,1.52
2023-04-20T13:09:39.387Z,1.40
2023-04-20T13:12:24.662Z,1.60
2023-04-20T13:15:09.945Z,1.20
2023-04-20T13:17:55.312Z,1.60
2023-04-20T13:20:40.724Z,1.67
2023-04-20T13:23:26.081Z,1.48
2023-04-20T13:26:11.565Z,1.50
2023-04-20T13:28:58.352Z,1.20
2023-04-20T13:31:43.626Z,1.45
2023-04-20T13:34:28.848Z,1.80
2023-04-20T13:37:14.115Z,1.63
2023-04-20T13:40:00.100Z,1.83
2023-04-20T13:42:45.188Z,1.88
2023-04-20T13:45:30.684Z,1.90
2023-04-20T13:48:16.104Z,2.00
2023-04-20T13:51:01.351Z,1.90
2023-04-20T13:53:48.420Z,1.70
2023-04-20T13:56:34.455Z,1.58
2023-04-20T13:59:19.726Z,1.60
2023-04-20T14:02:04.742Z,1.65
2023-04-20T14:04:50.020Z,1.80
2023-04-20T14:07:35.578Z,2.10
2023-04-20T14:10:20.876Z,2.22
2023-04-20T14:13:07.136Z,2.08
2023-04-20T14:15:53.984Z,2.10
2023-04-20T14:18:39.342Z,2.10
2023-04-20T14:21:24.694Z,2.08
2023-04-20T14:24:13.784Z,2.25
2023-04-20T14:26:59.869Z,2.60
2023-04-20T14:29:45.235Z,2.17
2023-04-20T14:32:31.331Z,2.70
2023-04-20T14:35:16.806Z,2.63
2023-04-20T14:38:02.077Z,2.30
2023-04-20T14:40:48.308Z,2.90
2023-04-20T14:43:34.495Z,3.30
2023-04-20T14:46:19.770Z,2.72
2023-04-20T14:49:05.379Z,2.83
2023-04-20T14:51:50.973Z,3.38
2023-04-20T14:54:36.058Z,3.75
2023-04-20T14:57:21.704Z,2.90
2023-04-20T15:00:07.393Z,3.30
2023-04-20T15:02:53.499Z,3.50
2023-04-20T15:05:39.685Z,3.65
2023-04-20T15:08:25.020Z,3.65
2023-04-20T15:11:10.179Z,3.88
2023-04-20T15:13:55.479Z,3.28
2023-04-20T15:16:40.892Z,3.33
2023-04-20T15:19:26.214Z,3.58
2023-04-20T15:22:14.712Z,3.53
2023-04-20T15:24:59.749Z,3.70
2023-04-20T15:27:44.701Z,3.75
2023-04-20T15:30:30.646Z,3.13
2023-04-20T15:33:15.960Z,3.58
2023-04-20T15:36:00.869Z,4.03
2023-04-20T15:38:46.287Z,3.40
2023-04-20T15:41:31.178Z,4.60
2023-04-20T15:44:17.062Z,3.97
2023-04-20T15:47:03.378Z,3.97
2023-04-20T15:49:48.181Z,3.50
2023-04-20T15:52:33.431Z,3.72
2023-04-20T15:55:18.614Z,3.10
2023-04-20T15:58:03.791Z,3.30
2023-04-20T16:00:48.684Z,3.13
2023-04-20T16:03:33.861Z,2.70
2023-04-20T16:06:19.228Z,3.80
2023-04-20T16:09:04.342Z,3.47
2023-04-20T16:11:49.679Z,3.33
2023-04-20T16:14:34.920Z,3.08
2023-04-20T16:17:20.027Z,3.08
2023-04-20T16:20:06.021Z,4.18
2023-04-20T16:22:51.365Z,3.15
2023-04-20T16:25:38.334Z,3.40
2023-04-20T16:28:23.625Z,3.60
2023-04-20T16:31:08.634Z,3.47
2023-04-20T16:33:54.052Z,3.50
2023-04-20T16:36:39.048Z,2.78
2023-04-20T16:39:23.959Z,3.05
2023-04-20T16:42:09.214Z,2.60
2023-04-20T16:44:55.688Z,2.83
2023-04-20T16:47:40.771Z,2.80
2023-04-20T16:50:26.137Z,2.50
2023-04-20T16:53:11.414Z,2.42
2023-04-20T16:55:56.548Z,2.20
2023-04-20T16:58:41.946Z,2.40
2023-04-20T17:01:27.410Z,2.35
2023-04-20T17:04:13.400Z,2.42
2023-04-20T17:06:58.549Z,2.38
2023-04-20T17:09:43.565Z,2.53
2023-04-20T17:12:29.310Z,2.80
2023-04-20T17:15:14.582Z,2.38
2023-04-20T17:17:59.707Z,2.47
2023-04-20T17:20:45.988Z,2.70
2023-04-20T17:23:34.108Z,2.47
2023-04-20T17:26:19.106Z,2.88
2023-04-20T17:29:04.724Z,2.92
2023-04-20T17:31:50.249Z,2.75
2023-04-20T17:34:35.861Z,3.00
2023-04-20T17:37:22.217Z,3.08
2023-04-20T17:40:08.388Z,3.30
2023-04-20T17:42:53.248Z,3.28
2023-04-20T17:45:38.300Z,3.28
2023-04-20T17:48:23.255Z,3.17
2023-04-20T17:51:08.524Z,3.72
2023-04-20T17:53:53.520Z,3.25
2023-04-20T17:56:38.447Z,4.15
2023-04-20T17:59:23.429Z,3.40
2023-04-20T18:02:09.232Z,3.50
2023-04-20T18:04:57.489Z,3.50
2023-04-20T18:07:42.781Z,3.72
2023-04-20T18:10:28.022Z,4.13
2023-04-20T18:13:13.267Z,3.80
2023-04-20T18:15:59.683Z,3.80
2023-04-20T18:18:44.779Z,4.25
2023-04-20T18:21:30.153Z,3.45
2023-04-20T18:24:15.368Z,3.40
2023-04-20T18:27:01.239Z,3.75
2023-04-20T18:29:46.405Z,3.00
2023-04-20T18:32:32.910Z,4.18
2023-04-20T18:35:19.331Z,3.88
2023-04-20T18:38:05.933Z,4.10
2023-04-20T18:40:51.136Z,3.60
2023-04-20T18:43:36.088Z,3.95
2023-04-20T18:46:20.923Z,3.70
2023-04-20T18:49:06.238Z,5.03
2023-04-20T18:51:51.465Z,4.60
2023-04-20T18:54:38.317Z,4.30
2023-04-20T18:57:26.193Z,5.15
2023-04-20T19:00:11.752Z,6.15
2023-04-20T19:02:57.221Z,6.47
2023-04-20T19:05:42.232Z,6.30
2023-04-20T19:08:27.550Z,6.45
2023-04-20T19:11:12.520Z,5.50
2023-04-20T19:13:57.455Z,5.55
2023-04-20T19:16:42.730Z,5.40
2023-04-20T19:19:28.169Z,5.80
2023-04-20T19:22:13.280Z,6.03
2023-04-20T19:24:58.495Z,6.03
2023-04-20T19:27:43.760Z,5.82
2023-04-20T19:30:29.244Z,5.90
2023-04-20T19:33:14.538Z,6.15
2023-04-20T19:36:00.659Z,5.85
2023-04-20T19:38:45.793Z,5.45
2023-04-20T19:41:30.975Z,6.25
2023-04-20T19:44:16.306Z,6.22
2023-04-20T19:47:01.579Z,6.22
2023-04-20T19:49:46.769Z,6.90
2023-04-20T19:52:34.268Z,6.70
2023-04-20T19:55:19.266Z,6.40
2023-04-20T19:58:09.130Z,6.03
2023-04-20T20:03:40.165Z,6.68
2023-04-20T20:06:26.881Z,7.53
2023-04-20T20:09:12.104Z,7.00
2023-04-20T20:11:57.467Z,7.30
2023-04-20T20:14:42.698Z,7.15
2023-04-20T20:17:27.919Z,7.10
2023-04-20T20:20:15.243Z,7.22
2023-04-20T20:23:00.665Z,7.47
2023-04-20T20:25:46.136Z,7.65
2023-04-20T20:28:31.339Z,6.50
2023-04-20T20:31:16.733Z,6.90
2023-04-20T20:34:01.741Z,6.68
2023-04-20T20:36:48.170Z,8.05
2023-04-20T20:39:33.234Z,7.25
2023-04-20T20:42:19.180Z,7.30
2023-04-20T20:45:12.475Z,7.30
2023-04-20T20:47:57.784Z,7.25
2023-04-20T20:50:43.101Z,7.50
2023-04-20T20:53:28.388Z,8.13
2023-04-20T20:56:13.751Z,7.43
2023-04-20T20:58:58.600Z,7.40
2023-04-20T21:01:43.670Z,8.32
2023-04-20T21:04:29.917Z,7.75
2023-04-20T21:07:14.994Z,9.00
2023-04-20T21:10:00.341Z,8.20
2023-04-20T21:12:45.203Z,8.48
2023-04-20T21:15:30.284Z,8.48
2023-04-20T21:18:15.454Z,8.60
2023-04-20T21:21:00.756Z,8.18
2023-04-20T21:23:45.824Z,8.35
2023-04-20T21:26:35.638Z,8.27
2023-04-20T21:29:21.045Z,8.10
2023-04-20T21:32:06.121Z,9.38
2023-04-20T21:34:52.068Z,9.48
2023-04-20T21:37:37.645Z,9.18
2023-04-20T21:40:25.118Z,9.48
2023-04-20T21:43:10.711Z,9.85
2023-04-20T21:45:55.880Z,9.45
2023-04-20T21:48:41.044Z,9.25
2023-04-20T21:51:25.999Z,9.40
2023-04-20T21:54:11.914Z,9.75
2023-04-20T21:56:57.043Z,10.85
2023-04-20T21:59:42.326Z,10.43
2023-04-20T22:02:27.362Z,10.60
2023-04-20T22:05:12.805Z,10.27
2023-04-20T22:07:58.109Z,9.80
2023-04-20T22:10:43.369Z,10.80
2023-04-20T22:13:28.308Z,9.75
2023-04-20T22:16:13.979Z,10.07
2023-04-20T22:18:58.851Z,10.15
2023-04-20T22:21:43.749Z,10.88
2023-04-20T22:24:28.834Z,11.57
2023-04-20T22:27:13.809Z,10.65
2023-04-20T22:29:59.134Z,11.30
2023-04-20T22:32:44.378Z,10.70
2023-04-20T22:35:30.071Z,10.88
2023-04-20T22:38:15.356Z,11.30
2023-04-20T22:41:00.279Z,11.20
2023-04-20T22:43:45.511Z,10.77
2023-04-20T22:46:30.818Z,11.48
2023-04-20T22:49:15.984Z,12.05
2023-04-20T22:52:01.427Z,11.68
2023-04-20T22:54:48.250Z,11.80
2023-04-20T22:57:33.481Z,12.57
2023-04-20T23:00:18.600Z,12.23
2023-04-20T23:03:04.187Z,12.15
2023-04-20T23:05:49.354Z,11.40
2023-04-20T23:08:34.524Z,13.30
2023-04-20T23:11:20.706Z,12.50
2023-04-20T23:14:06.582Z,12.55
2023-04-20T23:16:51.781Z,12.88
2023-04-20T23:19:38.405Z,12.45
2023-04-20T23:22:23.529Z,12.82
2023-04-20T23:25:09.894Z,11.82
2023-04-20T23:27:54.873Z,12.10
2023-04-20T23:30:39.832Z,12.93
2023-04-20T23:33:24.994Z,12.60
2023-04-20T23:36:11.929Z,12.95
2023-04-20T23:38:56.996Z,12.00
2023-04-20T23:41:41.936Z,12.70
2023-04-20T23:44:26.919Z,13.10
2023-04-20T23:47:11.785Z,12.07
2023-04-20T23:49:56.811Z,12.70
2023-04-20T23:52:41.723Z,12.95
2023-04-20T23:55:26.910Z,13.00
2023-04-20T23:58:12.127Z,13.75
